createdAt,value
2024-05-09T00:00:01.056Z,53.11
2024-05-09T00:01:01.071Z,49.92
2024-05-09T00:02:01.074Z,54.46
2024-05-09T00:03:01.348Z,52.68
2024-05-09T00:04:01.058Z,51.29
2024-05-09T00:05:01.098Z,55.04
2024-05-09T00:06:01.188Z,52.76
2024-05-09T00:07:01.030Z,50.66
2024-05-09T00:08:01.212Z,49.95
2024-05-09T00:09:01.007Z,56.32
2024-05-09T00:10:00.957Z,55.43
2024-05-09T00:11:01.051Z,53.42
2024-05-09T00:12:01.141Z,49.86
2024-05-09T00:13:01.004Z,51.61
2024-05-09T00:14:01.036Z,47.00
2024-05-09T00:15:00.923Z,47.87
2024-05-09T00:16:00.923Z,46.00
2024-05-09T00:17:01.083Z,47.06
2024-05-09T00:18:01.384Z,47.61
2024-05-09T00:19:01.013Z,51.17
2024-05-09T00:20:00.960Z,51.39
2024-05-09T00:21:00.997Z,52.37
2024-05-09T00:22:00.915Z,51.86
2024-05-09T00:23:00.881Z,48.01
2024-05-09T00:24:00.861Z,48.84
2024-05-09T00:25:00.878Z,51.57
2024-05-09T00:26:00.902Z,50.73
2024-05-09T00:27:00.860Z,53.36
2024-05-09T00:28:00.955Z,54.51
2024-05-09T00:29:00.895Z,51.64
2024-05-09T00:30:00.807Z,48.09
2024-05-09T00:31:00.810Z,48.87
2024-05-09T00:32:00.894Z,48.29
2024-05-09T00:33:01.095Z,47.80
2024-05-09T00:34:01.090Z,47.25
2024-05-09T00:35:00.829Z,47.36
2024-05-09T00:36:00.761Z,48.97
2024-05-09T00:37:00.803Z,49.67
2024-05-09T00:38:01.240Z,48.59
2024-05-09T00:39:00.743Z,49.15
2024-05-09T00:40:00.733Z,48.11
2024-05-09T00:41:00.913Z,49.76
2024-05-09T00:42:00.752Z,51.27
2024-05-09T00:43:00.725Z,46.93
2024-05-09T00:44:00.769Z,46.43
2024-05-09T00:45:00.704Z,47.33
2024-05-09T00:46:00.695Z,47.64
2024-05-09T00:47:00.746Z,46.09
2024-05-09T00:48:01.111Z,45.54
2024-05-09T00:49:00.813Z,45.40
2024-05-09T00:50:00.875Z,44.49
2024-05-09T00:51:00.837Z,46.22
2024-05-09T00:52:00.671Z,46.73
2024-05-09T00:53:00.735Z,45.25
2024-05-09T00:54:00.652Z,47.05
2024-05-09T00:55:00.696Z,47.48
2024-05-09T00:56:00.702Z,46.99
2024-05-09T00:57:00.646Z,57.55
2024-05-09T00:58:00.640Z,50.01
2024-05-09T00:59:00.699Z,47.73
2024-05-09T01:00:00.657Z,44.91
2024-05-09T01:01:00.727Z,45.46
2024-05-09T01:02:00.657Z,44.24
2024-05-09T01:03:00.750Z,45.50
2024-05-09T01:04:00.672Z,46.68
2024-05-09T01:05:00.741Z,45.40
2024-05-09T01:06:00.580Z,44.93
2024-05-09T01:07:00.568Z,44.40
2024-05-09T01:08:00.713Z,44.44
2024-05-09T01:09:00.540Z,42.45
2024-05-09T01:10:00.536Z,44.15
2024-05-09T01:11:00.732Z,44.02
2024-05-09T01:12:00.685Z,50.91
2024-05-09T01:13:00.543Z,45.46
2024-05-09T01:14:00.505Z,43.75
2024-05-09T01:15:00.615Z,44.68
2024-05-09T01:16:00.547Z,46.18
2024-05-09T01:17:00.499Z,44.95
2024-05-09T01:18:00.712Z,46.69
2024-05-09T01:19:00.516Z,46.13
2024-05-09T01:20:00.517Z,46.12
2024-05-09T01:21:00.488Z,46.98
2024-05-09T01:22:00.438Z,47.28
2024-05-09T01:23:00.511Z,46.15
2024-05-09T01:24:00.441Z,46.34
2024-05-09T01:25:00.431Z,48.01
2024-05-09T01:26:00.616Z,48.95
2024-05-09T01:27:00.400Z,47.29
2024-05-09T01:28:00.403Z,45.89
2024-05-09T01:29:00.460Z,48.78
2024-05-09T01:30:00.455Z,56.47
2024-05-09T01:31:00.402Z,52.40
2024-05-09T01:32:00.512Z,49.80
2024-05-09T01:33:00.523Z,48.10
2024-05-09T01:34:00.461Z,45.33
2024-05-09T01:35:00.453Z,50.11
2024-05-09T01:36:00.345Z,46.86
2024-05-09T01:37:00.357Z,46.86
2024-05-09T01:38:00.476Z,50.04
2024-05-09T01:39:00.313Z,46.24
2024-05-09T01:40:00.316Z,49.90
2024-05-09T01:41:00.463Z,51.62
2024-05-09T01:42:00.339Z,53.35
2024-05-09T01:43:00.313Z,55.14
2024-05-09T01:44:00.437Z,49.13
2024-05-09T01:45:00.359Z,48.15
2024-05-09T01:46:00.269Z,55.22
2024-05-09T01:47:00.307Z,58.13
2024-05-09T01:48:00.726Z,58.56
2024-05-09T01:49:00.346Z,53.31
2024-05-09T01:50:00.363Z,49.53
2024-05-09T01:51:00.286Z,47.32
2024-05-09T01:52:00.269Z,48.24
2024-05-09T01:53:00.278Z,45.39
2024-05-09T01:54:00.237Z,45.73
2024-05-09T01:55:02.759Z,47.01
2024-05-09T01:56:00.260Z,45.11
2024-05-09T01:57:00.199Z,45.89
2024-05-09T01:58:00.234Z,48.62
2024-05-09T01:59:00.243Z,55.77
2024-05-09T02:00:00.210Z,50.38
2024-05-09T02:01:00.234Z,48.04
2024-05-09T02:02:00.355Z,47.44
2024-05-09T02:03:00.374Z,49.36
2024-05-09T02:04:00.416Z,55.78
2024-05-09T02:05:00.565Z,49.00
2024-05-09T02:06:00.158Z,48.64
2024-05-09T02:07:00.160Z,49.30
2024-05-09T02:08:00.620Z,52.61
2024-05-09T02:09:00.094Z,55.89
2024-05-09T02:10:00.178Z,52.04
2024-05-09T02:11:00.225Z,47.78
2024-05-09T02:12:00.181Z,46.65
2024-05-09T02:13:00.101Z,45.90
2024-05-09T02:14:00.285Z,47.71
2024-05-09T02:15:00.154Z,50.40
2024-05-09T02:16:00.093Z,45.57
2024-05-09T02:17:00.135Z,46.53
2024-05-09T02:18:00.144Z,46.45
2024-05-09T02:19:00.112Z,48.46
2024-05-09T02:20:00.055Z,50.17
2024-05-09T02:21:00.183Z,48.49
2024-05-09T02:22:00.045Z,53.13
2024-05-09T02:23:00.097Z,48.22
2024-05-09T02:23:59.998Z,46.18
2024-05-09T02:24:59.991Z,46.68
2024-05-09T02:26:00.068Z,47.00
2024-05-09T02:26:59.976Z,47.09
2024-05-09T02:28:00.015Z,49.03
2024-05-09T02:29:00.179Z,48.72
2024-05-09T02:29:59.962Z,56.11
2024-05-09T02:30:59.943Z,49.32
2024-05-09T02:32:00.098Z,47.41
2024-05-09T02:33:00.163Z,47.44
2024-05-09T02:34:00.058Z,47.93
2024-05-09T02:34:59.975Z,48.78
2024-05-09T02:35:59.931Z,49.61
2024-05-09T02:36:59.908Z,50.76
2024-05-09T02:38:00.131Z,51.26
2024-05-09T02:38:59.926Z,51.29
2024-05-09T02:39:59.893Z,53.42
2024-05-09T02:40:59.953Z,52.11
2024-05-09T02:41:59.876Z,51.29
2024-05-09T02:42:59.873Z,51.53
2024-05-09T02:43:59.961Z,50.94
2024-05-09T02:44:59.864Z,52.07
2024-05-09T02:45:59.855Z,53.40
2024-05-09T02:46:59.864Z,57.02
2024-05-09T02:48:00.190Z,52.49
2024-05-09T02:48:59.968Z,51.02
2024-05-09T02:50:00.003Z,52.18
2024-05-09T02:50:59.990Z,52.22
2024-05-09T02:51:59.814Z,52.87
2024-05-09T02:52:59.839Z,52.27
2024-05-09T02:53:59.813Z,51.92
2024-05-09T02:54:59.867Z,52.26
2024-05-09T02:55:59.834Z,52.27
2024-05-09T02:56:59.772Z,55.35
2024-05-09T02:57:59.819Z,54.70
2024-05-09T02:58:59.869Z,54.86
2024-05-09T02:59:59.754Z,55.15
2024-05-09T03:00:59.792Z,52.35
2024-05-09T03:01:59.856Z,53.00
2024-05-09T03:02:59.975Z,53.40
2024-05-09T03:03:59.901Z,58.71
2024-05-09T03:04:59.856Z,51.66
2024-05-09T03:05:59.717Z,49.82
2024-05-09T03:06:59.708Z,51.25
2024-05-09T03:07:59.739Z,51.17
2024-05-09T03:08:59.858Z,50.55
2024-05-09T03:09:59.703Z,50.41
2024-05-09T03:10:59.789Z,50.46
2024-05-09T03:11:59.775Z,49.30
2024-05-09T03:12:59.669Z,56.51
2024-05-09T03:13:59.710Z,51.53
2024-05-09T03:14:59.693Z,51.48
2024-05-09T03:15:59.657Z,55.04
2024-05-09T03:16:59.687Z,51.91
2024-05-09T03:17:59.970Z,50.33
2024-05-09T03:18:59.786Z,49.58
2024-05-09T03:19:59.678Z,49.56
2024-05-09T03:20:59.783Z,50.45
2024-05-09T03:21:59.608Z,49.50
2024-05-09T03:22:59.622Z,49.63
2024-05-09T03:23:59.599Z,50.01
2024-05-09T03:24:59.595Z,51.54
2024-05-09T03:25:59.813Z,54.06
2024-05-09T03:26:59.581Z,51.47
2024-05-09T03:27:59.887Z,49.14
2024-05-09T03:28:59.679Z,49.08
2024-05-09T03:29:59.554Z,49.83
2024-05-09T03:30:59.576Z,49.74
2024-05-09T03:31:59.824Z,48.66
2024-05-09T03:32:59.735Z,50.10
2024-05-09T03:33:59.726Z,51.12
2024-05-09T03:34:59.604Z,53.67
2024-05-09T03:35:59.540Z,55.88
2024-05-09T03:36:59.529Z,51.63
2024-05-09T03:37:59.548Z,52.04
2024-05-09T03:38:59.543Z,51.72
2024-05-09T03:39:59.493Z,50.55
2024-05-09T03:40:59.619Z,50.52
2024-05-09T03:41:59.477Z,50.88
2024-05-09T03:42:59.471Z,50.00
2024-05-09T03:43:59.495Z,52.08
2024-05-09T03:44:59.470Z,51.29
2024-05-09T03:45:59.515Z,49.56
2024-05-09T03:46:59.499Z,49.04
2024-05-09T03:47:59.567Z,48.84
2024-05-09T03:48:59.491Z,50.14
2024-05-09T03:49:59.444Z,51.04
2024-05-09T03:50:59.482Z,51.12
2024-05-09T03:51:59.415Z,50.56
2024-05-09T03:52:59.474Z,55.63
2024-05-09T03:53:59.403Z,52.78
2024-05-09T03:54:59.406Z,51.18
2024-05-09T03:55:59.449Z,51.02
2024-05-09T03:56:59.378Z,51.39
2024-05-09T03:57:59.568Z,52.03
2024-05-09T03:58:59.429Z,55.08
2024-05-09T03:59:59.403Z,51.64
2024-05-09T04:00:59.421Z,50.44
2024-05-09T04:01:59.571Z,50.04
2024-05-09T04:02:59.614Z,50.20
2024-05-09T04:03:59.395Z,49.99
2024-05-09T04:04:59.357Z,48.72
2024-05-09T04:05:59.366Z,48.42
2024-05-09T04:06:59.332Z,49.67
2024-05-09T04:07:59.365Z,50.76
2024-05-09T04:08:59.333Z,50.55
2024-05-09T04:09:59.306Z,50.30
2024-05-09T04:10:59.462Z,48.81
2024-05-09T04:11:59.492Z,51.53
2024-05-09T04:12:59.282Z,49.39
2024-05-09T04:13:59.315Z,49.75
2024-05-09T04:14:59.265Z,53.69
2024-05-09T04:15:59.334Z,53.17
2024-05-09T04:16:59.299Z,50.63
2024-05-09T04:18:00.035Z,51.01
2024-05-09T04:18:59.288Z,51.46
2024-05-09T04:19:59.281Z,50.55
2024-05-09T04:20:59.365Z,49.63
2024-05-09T04:21:59.234Z,49.88
2024-05-09T04:22:59.239Z,50.26
2024-05-09T04:23:59.198Z,49.68
2024-05-09T04:24:59.214Z,50.10
2024-05-09T04:25:59.270Z,49.12
2024-05-09T04:26:59.223Z,48.95
2024-05-09T04:27:59.194Z,47.89
2024-05-09T04:28:59.218Z,51.02
2024-05-09T04:29:59.177Z,53.77
2024-05-09T04:30:59.162Z,50.08
2024-05-09T04:31:59.288Z,50.19
2024-05-09T04:32:59.301Z,50.27
2024-05-09T04:33:59.238Z,52.60
2024-05-09T04:34:59.212Z,55.52
2024-05-09T04:35:59.183Z,49.31
2024-05-09T04:36:59.125Z,51.69
2024-05-09T04:37:59.159Z,53.54
2024-05-09T04:38:59.102Z,50.89
2024-05-09T04:39:59.092Z,49.90
2024-05-09T04:40:59.163Z,48.78
2024-05-09T04:41:59.086Z,51.90
2024-05-09T04:42:59.073Z,56.05
2024-05-09T04:43:59.091Z,51.50
2024-05-09T04:44:59.050Z,48.92
2024-05-09T04:45:59.084Z,48.29
2024-05-09T04:46:59.114Z,47.82
2024-05-09T04:47:59.543Z,46.99
2024-05-09T04:48:59.122Z,46.21
2024-05-09T04:49:59.059Z,46.36
2024-05-09T04:50:59.048Z,51.92
2024-05-09T04:51:59.020Z,48.73
2024-05-09T04:52:59.043Z,50.82
2024-05-09T04:53:58.990Z,50.68
2024-05-09T04:54:59.154Z,46.99
2024-05-09T04:55:59.055Z,48.24
2024-05-09T04:56:59.002Z,47.37
2024-05-09T04:57:58.964Z,46.86
2024-05-09T04:58:59.004Z,46.75
2024-05-09T04:59:58.948Z,47.02
2024-05-09T05:00:59.050Z,48.75
2024-05-09T05:01:59.071Z,48.38
2024-05-09T05:02:59.173Z,48.56
2024-05-09T05:03:59.278Z,49.73
2024-05-09T05:04:58.978Z,47.69
2024-05-09T05:05:59.000Z,47.96
2024-05-09T05:07:02.150Z,48.22
2024-05-09T05:07:58.943Z,47.34
2024-05-09T05:08:58.890Z,46.40
2024-05-09T05:09:58.875Z,45.59
2024-05-09T05:10:58.992Z,44.94
2024-05-09T05:11:58.974Z,45.15
2024-05-09T05:12:58.879Z,46.41
2024-05-09T05:13:58.991Z,46.16
2024-05-09T05:14:58.839Z,48.62
2024-05-09T05:15:58.940Z,49.19
2024-05-09T05:16:58.846Z,46.85
2024-05-09T05:17:59.035Z,46.75
2024-05-09T05:18:58.877Z,46.84
2024-05-09T05:19:58.893Z,45.79
2024-05-09T05:20:58.936Z,46.65
2024-05-09T05:21:58.789Z,44.85
2024-05-09T05:22:58.814Z,47.59
2024-05-09T05:23:58.776Z,49.62
2024-05-09T05:24:58.762Z,46.81
2024-05-09T05:25:58.826Z,47.27
2024-05-09T05:26:58.750Z,47.91
2024-05-09T05:27:58.749Z,47.37
2024-05-09T05:28:58.798Z,45.76
2024-05-09T05:29:58.736Z,44.67
2024-05-09T05:30:58.753Z,45.89
2024-05-09T05:31:58.791Z,44.85
2024-05-09T05:32:58.875Z,44.43
2024-05-09T05:33:59.048Z,43.90
2024-05-09T05:34:58.746Z,45.36
2024-05-09T05:35:58.714Z,43.72
2024-05-09T05:36:58.680Z,42.18
2024-05-09T05:37:58.809Z,41.32
2024-05-09T05:38:58.722Z,44.74
2024-05-09T05:39:58.663Z,52.56
2024-05-09T05:40:58.710Z,46.09
2024-05-09T05:41:58.653Z,43.31
2024-05-09T05:42:58.640Z,43.33
2024-05-09T05:43:58.679Z,42.01
2024-05-09T05:44:58.638Z,44.06
2024-05-09T05:45:58.718Z,42.95
2024-05-09T05:46:58.629Z,42.33
2024-05-09T05:47:58.796Z,43.29
2024-05-09T05:48:58.801Z,46.83
2024-05-09T05:49:58.633Z,48.38
2024-05-09T05:50:59.434Z,54.14
2024-05-09T05:51:58.572Z,41.44
2024-05-09T05:52:58.657Z,40.72
2024-05-09T05:53:58.562Z,40.36
2024-05-09T05:54:58.555Z,39.85
2024-05-09T05:55:58.788Z,48.88
2024-05-09T05:56:58.548Z,52.53
2024-05-09T05:57:58.549Z,42.78
2024-05-09T05:58:58.581Z,39.94
2024-05-09T05:59:58.522Z,44.66
2024-05-09T06:00:58.627Z,48.59
2024-05-09T06:01:58.545Z,39.85
2024-05-09T06:02:58.593Z,40.90
2024-05-09T06:03:58.650Z,40.40
2024-05-09T06:04:58.565Z,47.06
2024-05-09T06:05:59.021Z,41.22
2024-05-09T06:06:58.483Z,46.36
2024-05-09T06:07:58.530Z,45.63
2024-05-09T06:08:58.517Z,41.57
2024-05-09T06:09:58.448Z,40.47
2024-05-09T06:10:58.533Z,39.46
2024-05-09T06:11:58.493Z,39.62
2024-05-09T06:12:58.436Z,39.76
2024-05-09T06:13:58.478Z,40.28
2024-05-09T06:14:58.414Z,40.01
2024-05-09T06:15:58.438Z,46.62
2024-05-09T06:16:58.536Z,43.71
2024-05-09T06:17:59.051Z,50.02
2024-05-09T06:18:58.505Z,40.86
2024-05-09T06:19:58.417Z,40.94
2024-05-09T06:20:58.439Z,39.83
2024-05-09T06:21:58.515Z,38.56
2024-05-09T06:22:58.399Z,39.01
2024-05-09T06:23:58.363Z,39.11
2024-05-09T06:24:58.352Z,39.06
2024-05-09T06:25:58.437Z,39.07
2024-05-09T06:26:58.385Z,38.78
2024-05-09T06:27:58.334Z,39.91
2024-05-09T06:28:58.382Z,41.81
2024-05-09T06:29:58.317Z,42.18
2024-05-09T06:30:58.331Z,38.94
2024-05-09T06:32:00.106Z,46.21
2024-05-09T06:32:58.496Z,42.19
2024-05-09T06:33:58.444Z,40.25
2024-05-09T06:34:58.340Z,40.03
2024-05-09T06:35:58.302Z,39.10
2024-05-09T06:36:58.368Z,45.40
2024-05-09T06:37:58.318Z,53.08
2024-05-09T06:38:58.292Z,39.41
2024-05-09T06:39:58.253Z,44.33
2024-05-09T06:40:58.394Z,44.02
2024-05-09T06:41:58.249Z,39.34
2024-05-09T06:42:58.297Z,39.06
2024-05-09T06:43:58.267Z,39.56
2024-05-09T06:44:58.254Z,38.39
2024-05-09T06:45:58.228Z,38.65
2024-05-09T06:46:59.838Z,41.60
2024-05-09T06:47:58.390Z,52.97
2024-05-09T06:48:58.399Z,41.69
2024-05-09T06:49:58.238Z,38.31
2024-05-09T06:50:58.243Z,39.03
2024-05-09T06:51:58.183Z,39.39
2024-05-09T06:52:58.223Z,40.21
2024-05-09T06:53:58.155Z,39.36
2024-05-09T06:54:58.145Z,39.06
2024-05-09T06:55:58.387Z,39.19
2024-05-09T06:56:58.155Z,39.35
2024-05-09T06:57:58.151Z,42.83
2024-05-09T06:58:58.187Z,44.28
2024-05-09T06:59:58.109Z,40.96
2024-05-09T07:00:58.237Z,39.38
2024-05-09T07:01:58.145Z,39.60
2024-05-09T07:03:00.113Z,39.74
2024-05-09T07:03:58.207Z,45.87
2024-05-09T07:04:58.142Z,43.79
2024-05-09T07:05:58.156Z,40.01
2024-05-09T07:06:58.066Z,54.70
2024-05-09T07:07:58.087Z,40.56
2024-05-09T07:08:58.050Z,48.65
2024-05-09T07:09:58.052Z,44.04
2024-05-09T07:10:58.338Z,43.09
2024-05-09T07:11:58.130Z,40.80
2024-05-09T07:12:58.031Z,39.37
2024-05-09T07:13:58.046Z,41.29
2024-05-09T07:14:58.179Z,39.61
2024-05-09T07:15:58.066Z,40.80
2024-05-09T07:16:58.113Z,39.87
2024-05-09T07:17:58.388Z,42.81
2024-05-09T07:18:58.115Z,47.01
2024-05-09T07:19:58.005Z,40.34
2024-05-09T07:20:58.043Z,38.32
2024-05-09T07:21:57.972Z,40.31
2024-05-09T07:22:58.012Z,41.79
2024-05-09T07:23:58.052Z,44.85
2024-05-09T07:24:57.983Z,40.43
2024-05-09T07:25:58.257Z,42.65
2024-05-09T07:26:57.943Z,41.11
2024-05-09T07:27:57.926Z,39.34
2024-05-09T07:28:57.949Z,39.70
2024-05-09T07:29:57.939Z,39.11
2024-05-09T07:30:57.930Z,45.00
2024-05-09T07:31:57.935Z,40.44
2024-05-09T07:32:58.195Z,40.24
2024-05-09T07:33:57.927Z,39.02
2024-05-09T07:34:57.940Z,38.08
2024-05-09T07:35:57.916Z,38.51
2024-05-09T07:36:57.908Z,40.20
2024-05-09T07:37:57.939Z,41.89
2024-05-09T07:38:58.072Z,41.80
2024-05-09T07:39:57.860Z,41.38
2024-05-09T07:40:57.963Z,40.78
2024-05-09T07:41:57.839Z,40.27
2024-05-09T07:42:57.827Z,39.66
2024-05-09T07:43:57.853Z,39.67
2024-05-09T07:45:14.558Z,39.98
2024-05-09T07:46:23.019Z,38.42
2024-05-09T07:49:44.336Z,39.71
2024-05-09T07:51:33.063Z,42.96
2024-05-09T07:53:00.833Z,40.45
2024-05-09T07:53:22.012Z,40.25
2024-05-09T07:54:00.615Z,39.42
2024-05-09T07:54:57.923Z,42.36
2024-05-09T07:55:58.073Z,41.26
2024-05-09T07:56:57.892Z,39.60
2024-05-09T07:57:57.837Z,38.92
2024-05-09T07:58:57.735Z,38.94
2024-05-09T07:59:57.712Z,38.55
2024-05-09T08:00:57.861Z,38.88
2024-05-09T08:01:57.838Z,40.04
2024-05-09T08:02:57.703Z,40.86
2024-05-09T08:03:57.893Z,44.28
2024-05-09T08:04:57.817Z,39.51
2024-05-09T08:05:57.701Z,40.52
2024-05-09T08:06:57.714Z,39.81
2024-05-09T08:07:57.663Z,39.91
2024-05-09T08:09:00.733Z,42.80
2024-05-09T08:09:58.672Z,40.79
2024-05-09T08:10:57.674Z,42.21
2024-05-09T08:11:57.735Z,52.82
2024-05-09T08:12:57.727Z,43.22
2024-05-09T08:13:57.725Z,43.57
2024-05-09T08:14:57.623Z,51.23
2024-05-09T08:15:58.108Z,48.14
2024-05-09T08:16:57.660Z,45.64
2024-05-09T08:17:57.709Z,53.48
2024-05-09T08:18:57.773Z,41.32
2024-05-09T08:19:57.596Z,43.86
2024-05-09T08:20:57.611Z,51.24
2024-05-09T08:21:57.611Z,41.87
2024-05-09T08:22:57.569Z,39.78
2024-05-09T08:23:57.571Z,38.97
2024-05-09T08:24:57.600Z,38.42
2024-05-09T08:25:57.851Z,41.36
2024-05-09T08:26:57.530Z,41.21
2024-05-09T08:27:57.548Z,40.23
2024-05-09T08:28:57.521Z,39.15
2024-05-09T08:29:57.532Z,39.50
2024-05-09T08:30:57.712Z,42.65
2024-05-09T08:31:57.649Z,40.04
2024-05-09T08:32:57.574Z,39.84
2024-05-09T08:33:57.678Z,39.55
2024-05-09T08:34:57.521Z,40.56
2024-05-09T08:35:57.495Z,47.06
2024-05-09T08:36:59.687Z,39.98
2024-05-09T08:37:57.566Z,40.26
2024-05-09T08:38:57.472Z,40.03
2024-05-09T08:39:57.480Z,41.75
2024-05-09T08:40:57.559Z,43.98
2024-05-09T08:41:57.446Z,45.76
2024-05-09T08:42:57.468Z,42.17
2024-05-09T08:43:57.427Z,40.22
2024-05-09T08:44:57.427Z,43.02
2024-05-09T08:45:57.494Z,52.55
2024-05-09T08:46:57.407Z,38.65
2024-05-09T08:47:57.528Z,38.06
2024-05-09T08:48:57.597Z,39.77
2024-05-09T08:49:57.549Z,42.29
2024-05-09T08:50:57.409Z,37.43
2024-05-09T08:51:57.481Z,36.27
2024-05-09T08:52:57.371Z,36.00
2024-05-09T08:53:57.368Z,38.84
2024-05-09T08:54:57.381Z,38.25
2024-05-09T08:55:57.377Z,36.38
2024-05-09T08:56:57.362Z,37.59
2024-05-09T08:57:57.377Z,47.45
2024-05-09T08:58:57.348Z,46.80
2024-05-09T08:59:57.336Z,40.10
2024-05-09T09:00:57.421Z,39.66
2024-05-09T09:01:57.414Z,39.52
2024-05-09T09:02:57.329Z,43.31
2024-05-09T09:03:57.388Z,39.10
2024-05-09T09:04:57.370Z,43.84
2024-05-09T09:05:57.363Z,37.68
2024-05-09T09:06:58.766Z,36.87
2024-05-09T09:07:57.284Z,38.35
2024-05-09T09:08:57.838Z,48.90
2024-05-09T09:09:57.310Z,38.63
2024-05-09T09:10:57.292Z,36.17
2024-05-09T09:11:57.276Z,39.90
2024-05-09T09:12:57.285Z,50.63
2024-05-09T09:13:57.232Z,43.38
2024-05-09T09:14:57.232Z,35.78
2024-05-09T09:15:57.467Z,34.74
2024-05-09T09:16:57.219Z,35.63
2024-05-09T09:17:57.362Z,35.40
2024-05-09T09:18:57.729Z,36.11
2024-05-09T09:19:57.309Z,35.68
2024-05-09T09:20:57.243Z,40.33
2024-05-09T09:21:57.319Z,41.56
2024-05-09T09:22:57.183Z,45.66
2024-05-09T09:23:57.155Z,38.41
2024-05-09T09:24:57.173Z,38.70
2024-05-09T09:25:57.161Z,38.87
2024-05-09T09:26:57.299Z,46.14
2024-05-09T09:27:57.581Z,42.75
2024-05-09T09:28:57.164Z,38.47
2024-05-09T09:29:57.358Z,38.75
2024-05-09T09:30:57.318Z,40.24
2024-05-09T09:31:57.269Z,38.26
2024-05-09T09:32:57.355Z,41.15
2024-05-09T09:33:57.668Z,41.31
2024-05-09T09:34:57.308Z,37.13
2024-05-09T09:35:57.418Z,36.98
2024-05-09T09:36:57.154Z,36.99
2024-05-09T09:37:57.117Z,36.56
2024-05-09T09:38:57.048Z,39.01
2024-05-09T09:39:57.083Z,35.90
2024-05-09T09:40:57.191Z,35.99
2024-05-09T09:41:57.024Z,37.19
2024-05-09T09:42:57.066Z,38.02
2024-05-09T09:43:57.008Z,43.41
2024-05-09T09:45:04.314Z,50.70
2024-05-09T09:45:58.507Z,54.16
2024-05-09T09:46:57.088Z,39.16
2024-05-09T09:47:57.198Z,37.56
2024-05-09T09:48:57.051Z,38.65
2024-05-09T09:49:57.039Z,41.30
2024-05-09T09:50:56.969Z,46.57
2024-05-09T09:51:57.001Z,46.44
2024-05-09T09:52:56.940Z,47.36
2024-05-09T09:53:56.931Z,41.67
2024-05-09T09:54:56.942Z,38.16
2024-05-09T09:55:56.937Z,37.83
2024-05-09T09:56:56.914Z,39.02
2024-05-09T09:57:56.953Z,39.11
2024-05-09T09:58:56.897Z,44.70
2024-05-09T09:59:56.888Z,40.61
2024-05-09T10:00:57.338Z,41.79
2024-05-09T10:01:57.085Z,42.01
2024-05-09T10:02:57.059Z,44.70
2024-05-09T10:03:56.995Z,42.06
2024-05-09T10:04:57.072Z,41.57
2024-05-09T10:05:56.899Z,48.28
2024-05-09T10:06:56.859Z,38.85
2024-05-09T10:07:56.842Z,38.43
2024-05-09T10:08:56.838Z,36.72
2024-05-09T10:09:56.974Z,39.04
2024-05-09T10:10:56.888Z,39.89
2024-05-09T10:12:56.892Z,39.19
2024-05-09T10:13:56.807Z,40.18
2024-05-09T10:14:56.796Z,46.12
2024-05-09T10:15:56.817Z,37.91
2024-05-09T10:16:56.781Z,36.37
2024-05-09T10:17:56.862Z,36.09
2024-05-09T10:18:56.959Z,36.13
2024-05-09T10:19:56.838Z,37.41
2024-05-09T10:20:56.752Z,37.33
2024-05-09T10:21:56.809Z,37.03
2024-05-09T10:22:56.753Z,36.67
2024-05-09T10:23:56.733Z,39.89
2024-05-09T10:24:56.776Z,45.48
2024-05-09T10:25:57.026Z,36.95
2024-05-09T10:26:56.695Z,36.99
2024-05-09T10:27:56.777Z,36.38
2024-05-09T10:28:56.679Z,36.18
2024-05-09T10:29:56.680Z,36.95
2024-05-09T10:30:56.744Z,36.70
2024-05-09T10:31:56.649Z,38.07
2024-05-09T10:32:56.826Z,38.61
2024-05-09T10:33:56.849Z,37.98
2024-05-09T10:34:56.871Z,39.16
2024-05-09T10:35:56.646Z,38.16
2024-05-09T10:36:56.651Z,38.48
2024-05-09T10:37:56.611Z,38.10
2024-05-09T10:38:56.618Z,42.20
2024-05-09T10:39:56.652Z,39.47
2024-05-09T10:40:56.628Z,38.20
2024-05-09T10:41:56.607Z,37.52
2024-05-09T10:42:56.648Z,41.84
2024-05-09T10:43:56.593Z,47.54
2024-05-09T10:44:56.594Z,38.77
2024-05-09T10:45:56.681Z,36.63
2024-05-09T10:46:56.612Z,36.15
2024-05-09T10:47:56.712Z,36.41
2024-05-09T10:48:56.726Z,45.67
2024-05-09T10:49:56.626Z,39.33
2024-05-09T10:50:56.546Z,35.11
2024-05-09T10:51:56.628Z,35.13
2024-05-09T10:52:56.517Z,36.28
2024-05-09T10:53:56.505Z,46.39
2024-05-09T10:54:56.634Z,35.36
2024-05-09T10:55:56.495Z,35.32
2024-05-09T10:56:56.503Z,35.32
2024-05-09T10:57:56.559Z,35.60
2024-05-09T10:58:56.485Z,36.29
2024-05-09T10:59:56.489Z,39.15
2024-05-09T11:00:56.551Z,36.48
2024-05-09T11:01:56.805Z,35.04
2024-05-09T11:02:56.487Z,36.94
2024-05-09T11:03:56.668Z,34.10
2024-05-09T11:04:56.634Z,34.44
2024-05-09T11:05:56.561Z,35.42
2024-05-09T11:06:56.504Z,34.58
2024-05-09T11:07:56.416Z,34.95
2024-05-09T11:08:56.409Z,35.15
2024-05-09T11:09:56.415Z,39.35
2024-05-09T11:10:56.500Z,35.11
2024-05-09T11:11:56.898Z,35.04
2024-05-09T11:12:56.439Z,33.97
2024-05-09T11:13:56.539Z,39.73
2024-05-09T11:14:56.371Z,45.10
2024-05-09T11:15:56.493Z,36.29
2024-05-09T11:16:56.354Z,34.64
2024-05-09T11:17:56.580Z,34.43
2024-05-09T11:18:56.844Z,34.04
2024-05-09T11:19:56.456Z,33.87
2024-05-09T11:20:56.549Z,34.26
2024-05-09T11:21:56.630Z,36.82
2024-05-09T11:22:56.324Z,35.02
2024-05-09T11:23:56.327Z,38.65
2024-05-09T11:24:56.385Z,35.90
2024-05-09T11:25:56.312Z,35.14
2024-05-09T11:26:56.295Z,35.47
2024-05-09T11:27:56.416Z,38.56
2024-05-09T11:28:56.297Z,36.78
2024-05-09T11:29:56.295Z,34.18
2024-05-09T11:30:56.316Z,34.32
2024-05-09T11:31:56.336Z,33.60
2024-05-09T11:32:56.404Z,33.57
2024-05-09T11:33:56.348Z,33.43
2024-05-09T11:34:56.243Z,34.46
2024-05-09T11:35:56.241Z,34.52
2024-05-09T11:36:56.292Z,35.94
2024-05-09T11:37:56.242Z,38.50
2024-05-09T11:38:56.277Z,34.57
2024-05-09T11:39:56.269Z,34.85
2024-05-09T11:40:56.261Z,35.31
2024-05-09T11:41:56.208Z,36.32
2024-05-09T11:42:56.228Z,34.45
2024-05-09T11:43:56.211Z,34.33
2024-05-09T11:44:56.205Z,34.39
2024-05-09T11:45:56.281Z,35.87
2024-05-09T11:46:56.177Z,36.88
2024-05-09T11:47:56.370Z,37.81
2024-05-09T11:48:56.408Z,40.62
2024-05-09T11:49:56.306Z,38.36
2024-05-09T11:50:56.153Z,39.46
2024-05-09T11:51:56.225Z,38.21
2024-05-09T11:52:56.166Z,37.37
2024-05-09T11:53:56.140Z,39.53
2024-05-09T11:54:56.210Z,37.71
2024-05-09T11:55:56.122Z,37.01
2024-05-09T11:56:56.107Z,36.44
2024-05-09T11:57:56.281Z,40.62
2024-05-09T11:58:56.095Z,37.03
2024-05-09T11:59:56.089Z,38.98
2024-05-09T12:00:56.179Z,42.83
2024-05-09T12:01:56.228Z,42.73
2024-05-09T12:02:56.134Z,41.81
2024-05-09T12:03:56.272Z,38.18
2024-05-09T12:04:56.167Z,37.29
2024-05-09T12:05:56.603Z,36.95
2024-05-09T12:06:56.121Z,39.38
2024-05-09T12:07:56.052Z,38.32
2024-05-09T12:08:56.089Z,36.71
2024-05-09T12:09:56.055Z,41.84
2024-05-09T12:10:56.464Z,36.09
2024-05-09T12:11:56.094Z,35.73
2024-05-09T12:12:56.033Z,35.59
2024-05-09T12:13:56.021Z,35.54
2024-05-09T12:14:56.002Z,45.14
2024-05-09T12:15:56.062Z,40.66
2024-05-09T12:16:56.057Z,39.28
2024-05-09T12:17:58.902Z,35.13
2024-05-09T12:18:57.200Z,35.55
2024-05-09T12:19:55.971Z,35.91
2024-05-09T12:20:55.993Z,35.49
2024-05-09T12:21:56.405Z,34.77
2024-05-09T12:22:55.955Z,36.30
2024-05-09T12:23:55.952Z,35.93
2024-05-09T12:24:55.997Z,36.02
2024-05-09T12:25:55.941Z,40.91
2024-05-09T12:26:55.964Z,35.43
2024-05-09T12:27:55.999Z,34.66
2024-05-09T12:28:55.928Z,34.57
2024-05-09T12:29:55.906Z,38.24
2024-05-09T12:30:56.001Z,35.37
2024-05-09T12:31:56.045Z,38.36
2024-05-09T12:32:56.235Z,41.17
2024-05-09T12:33:56.031Z,44.44
2024-05-09T12:34:55.880Z,45.25
2024-05-09T12:35:55.874Z,37.81
2024-05-09T12:36:55.899Z,37.78
2024-05-09T12:37:55.865Z,36.59
2024-05-09T12:38:55.981Z,36.86
2024-05-09T12:39:55.895Z,38.72
2024-05-09T12:40:56.137Z,47.81
2024-05-09T12:41:55.841Z,38.16
2024-05-09T12:42:55.882Z,37.39
2024-05-09T12:43:55.820Z,36.62
2024-05-09T12:44:55.813Z,37.00
2024-05-09T12:45:55.954Z,36.51
2024-05-09T12:46:55.799Z,37.26
2024-05-09T12:47:56.028Z,37.42
2024-05-09T12:48:56.116Z,44.22
2024-05-09T12:49:55.843Z,37.24
2024-05-09T12:50:55.826Z,39.29
2024-05-09T12:51:55.797Z,49.30
2024-05-09T12:52:55.765Z,38.30
2024-05-09T12:53:55.770Z,44.57
2024-05-09T12:54:55.770Z,48.32
2024-05-09T12:56:00.112Z,44.93